Chur/Vaduz, Switzerland
Current Conditions -  °F | °C
As of 11:20 AM on Sunday 26 Oct 2014 (Local Time) from LSZS Reporting Station
Light Fog Light Fog  
Wind Chill: 36°   Ceiling: 200
Heat Index: 36°   Visibility: 0.93mi
Dew Point: 36°   Wind: 1mph
Humidity: 100%   Direction: 40°NE
Pressure: 30.3"   Gusts: NA
Location:  46.85°N, 9.53°E
Report Text: LSZS 260920Z 04001KT 1500 0400NE PRFG OVC002 02/02 Q1026
Loading
Personal Weather Stations






























Interactive Weather Map
Tropical Storm Tracking
New forecast layout! Learn more

10-Day Weather Forecast

Advertisements
Track Severe Weather on mobile